»·PEaware :: N790DL KVCB-KRNM

N790DL :: KVCB-KRNM

FLIGHT INFORMATION

Flight Status: Arrived
Operator: Privately registered:
United States
More flights under this callsign
Pilot: Keith B. (30325)
Aircraft: BEECH AIRCRAFT DEBONAIR BONANZA
(BE33)
More flights by this aircraft type
Origin: KVCB Nut Tree
United States
Destination: KRNM Ramona
United States
More flights between these airports :: More routes between these airports
Route: KVCB KEDU SAC GIFME RBLEW PXN AVE GMN JEFFY DODGR SLI DANAH OFREE OORAH OCN BONDO KRNM
File this flight plan on PilotEdge
Remarks: Nut tree to Ramona
Altitude:
(Current/Filed)
10,500ft
Speed:
(Current/Filed)
150kts
Departed: 16-Oct-20 01:58 PM
Arrived: 16-Oct-20 04:48 PM
Distance/Time
Traveled:
403nm/2:50
Distance/Time
To Go:
Arrived

Flight Plot

Page will automatically refresh every two minutes.

Flight plan parsing failed; only flown route is shown


Map Options




Map Legend


Flown Route
Filed Route
Departure Airport
Arrival Airport
Navaid (VOR, NDB)
Fix

Horizontal Profiles

Position Reports

Time Latitude Longitude Heading Altitude Ground
Speed
16-Oct-20 13:46 38.374846 -121.960946 33 111ft 0kts
16-Oct-20 13:47 38.374846 -121.960946 33 111ft 0kts
16-Oct-20 13:48 38.374772 -121.960652 203 111ft 4kts
16-Oct-20 13:49 38.375199 -121.962770 218 115ft 10kts
16-Oct-20 13:50 38.372171 -121.965160 227 118ft 0kts
16-Oct-20 13:51 38.372171 -121.965160 227 118ft 0kts
16-Oct-20 13:52 38.372171 -121.965160 227 118ft 0kts
16-Oct-20 13:53 38.372171 -121.965160 227 118ft 0kts
16-Oct-20 13:54 38.372171 -121.965160 227 118ft 0kts
16-Oct-20 13:55 38.372171 -121.965160 227 118ft 0kts
16-Oct-20 13:56 38.372171 -121.965160 226 118ft 0kts
16-Oct-20 13:57 38.375425 -121.963573 32 117ft 78kts
16-Oct-20 13:58 38.396656 -121.952526 315 974ft 95kts
16-Oct-20 13:59 38.381928 -121.979575 208 953ft 114kts
16-Oct-20 14:00 38.359500 -121.982068 88 783ft 90kts
16-Oct-20 14:01 38.373628 -121.965071 26 117ft 56kts
16-Oct-20 14:02 38.375111 -121.961620 33 113ft 2kts
16-Oct-20 14:03 38.375126 -121.961607 33 113ft 0kts
16-Oct-20 14:04 38.375249 -121.962265 293 115ft 7kts
16-Oct-20 14:05 38.372138 -121.965262 235 119ft 7kts
16-Oct-20 14:06 38.372138 -121.965512 301 119ft 0kts
16-Oct-20 14:07 38.379842 -121.959625 30 239ft 89kts
16-Oct-20 14:08 38.399641 -121.939722 33 1414ft 97kts
16-Oct-20 14:09 38.419780 -121.912317 42 2359ft 111kts
16-Oct-20 14:10 38.442460 -121.885548 39 3259ft 111kts
16-Oct-20 14:11 38.465529 -121.859835 39 4136ft 109kts
16-Oct-20 14:12 38.487967 -121.834821 39 5001ft 104kts
16-Oct-20 14:13 38.507549 -121.812960 41 5830ft 77kts
16-Oct-20 14:14 38.525946 -121.792654 47 6032ft 114kts
16-Oct-20 14:15 38.519070 -121.750219 117 6335ft 136kts
16-Oct-20 14:16 38.500802 -121.704013 118 6452ft 157kts
16-Oct-20 14:17 38.459190 -121.689032 169 6460ft 167kts
16-Oct-20 14:18 38.413958 -121.672251 161 6451ft 171kts
16-Oct-20 14:19 38.368532 -121.653830 161 6445ft 172kts
16-Oct-20 14:20 38.323002 -121.635475 161 6445ft 172kts
16-Oct-20 14:21 38.277210 -121.617598 161 6438ft 172kts
16-Oct-20 14:22 38.231597 -121.599214 161 6437ft 171kts
16-Oct-20 14:23 38.185943 -121.582197 169 6435ft 171kts
16-Oct-20 14:24 38.139017 -121.570864 168 6432ft 171kts
16-Oct-20 14:25 38.092301 -121.558284 167 6426ft 172kts
16-Oct-20 14:26 38.045519 -121.546349 168 6421ft 172kts
16-Oct-20 14:27 37.998846 -121.534350 168 6420ft 171kts
16-Oct-20 14:28 37.952107 -121.522337 168 6417ft 171kts
16-Oct-20 14:29 37.905438 -121.510361 168 6413ft 171kts
16-Oct-20 14:30 37.863201 -121.487180 151 6587ft 163kts
16-Oct-20 14:31 37.823181 -121.461719 153 6828ft 160kts
16-Oct-20 14:32 37.783264 -121.436741 153 7065ft 160kts
16-Oct-20 14:33 37.743245 -121.411695 153 7282ft 161kts
16-Oct-20 14:34 37.702743 -121.386383 153 7483ft 163kts
16-Oct-20 14:35 37.662022 -121.360937 153 7667ft 164kts
16-Oct-20 14:36 37.621005 -121.335321 154 7904ft 162kts
16-Oct-20 14:37 37.580802 -121.310255 154 8188ft 160kts
16-Oct-20 14:38 37.540976 -121.285475 154 8458ft 160kts
16-Oct-20 14:39 37.501162 -121.260749 154 8716ft 159kts
16-Oct-20 14:40 37.461331 -121.236016 154 8952ft 160kts
16-Oct-20 14:41 37.421482 -121.210322 154 9165ft 161kts
16-Oct-20 14:42 37.381325 -121.185469 154 9360ft 161kts
16-Oct-20 14:43 37.340654 -121.160335 154 9459ft 166kts
16-Oct-20 14:44 37.298465 -121.134288 154 9455ft 171kts
16-Oct-20 14:45 37.255563 -121.107782 154 9450ft 172kts
16-Oct-20 14:46 37.212501 -121.081254 154 9436ft 173kts
16-Oct-20 14:47 37.169482 -121.054776 155 9433ft 172kts
16-Oct-20 14:48 37.126431 -121.028305 155 9429ft 172kts
16-Oct-20 14:50 37.083476 -121.001942 155 9426ft 172kts
16-Oct-20 14:51 37.040442 -120.975580 155 9412ft 172kts
16-Oct-20 14:52 36.997412 -120.949204 155 9401ft 172kts
16-Oct-20 14:53 36.954370 -120.922885 155 9399ft 172kts
16-Oct-20 14:54 36.911454 -120.896691 155 9396ft 171kts
16-Oct-20 14:55 36.868840 -120.871297 155 9458ft 169kts
16-Oct-20 14:56 36.826453 -120.845501 155 9462ft 170kts
16-Oct-20 14:57 36.783727 -120.819492 155 9463ft 171kts
16-Oct-20 14:58 36.740935 -120.793491 155 9465ft 171kts
16-Oct-20 14:59 36.698643 -120.765769 148 9459ft 172kts
16-Oct-20 15:00 36.658171 -120.734391 149 9465ft 171kts
16-Oct-20 15:01 36.617354 -120.703417 149 9461ft 172kts
16-Oct-20 15:02 36.576542 -120.672470 149 9467ft 171kts
16-Oct-20 15:03 36.535589 -120.641458 150 9436ft 173kts
16-Oct-20 15:04 36.494500 -120.610381 150 9424ft 172kts
16-Oct-20 15:05 36.453623 -120.579503 150 9419ft 172kts
16-Oct-20 15:06 36.412817 -120.548682 150 9417ft 171kts
16-Oct-20 15:06 36.378800 -120.523059 150 9414ft 171kts
16-Oct-20 15:08 36.331289 -120.487299 150 9419ft 170kts
16-Oct-20 15:08 36.297551 -120.461907 150 9415ft 171kts
16-Oct-20 15:10 36.250771 -120.426735 150 9561ft 164kts
16-Oct-20 15:10 36.218442 -120.402766 150 9724ft 161kts
16-Oct-20 15:11 36.180021 -120.374012 150 9910ft 161kts
16-Oct-20 15:12 36.141720 -120.345349 150 10106ft 160kts
16-Oct-20 15:13 36.104489 -120.317478 150 10412ft 155kts
16-Oct-20 15:14 36.067770 -120.290076 150 10714ft 154kts
16-Oct-20 15:15 36.030933 -120.262588 150 11008ft 155kts
16-Oct-20 15:16 35.993843 -120.234971 150 11291ft 156kts
16-Oct-20 15:17 35.956251 -120.206667 149 11422ft 164kts
16-Oct-20 15:18 35.915897 -120.176697 150 11405ft 171kts
16-Oct-20 15:19 35.875103 -120.146357 150 11461ft 171kts
16-Oct-20 15:20 35.834162 -120.116035 149 11459ft 173kts
16-Oct-20 15:21 35.792723 -120.085322 149 11455ft 174kts
16-Oct-20 15:22 35.751080 -120.054523 149 11457ft 174kts
16-Oct-20 15:23 35.709486 -120.023809 149 11442ft 175kts
16-Oct-20 15:24 35.667908 -119.993101 149 11437ft 174kts
16-Oct-20 15:25 35.629997 -119.956538 128 11435ft 175kts
16-Oct-20 15:26 35.597883 -119.911513 132 11434ft 175kts
16-Oct-20 15:27 35.565063 -119.867418 132 11432ft 175kts
16-Oct-20 15:28 35.532324 -119.823500 132 11431ft 174kts
16-Oct-20 15:29 35.499601 -119.779594 132 11436ft 174kts
16-Oct-20 15:30 35.466752 -119.735589 132 11430ft 174kts
16-Oct-20 15:31 35.434020 -119.691828 132 11428ft 174kts
16-Oct-20 15:32 35.401182 -119.648014 132 11424ft 175kts
16-Oct-20 15:33 35.368270 -119.604113 132 11421ft 174kts
16-Oct-20 15:34 35.335590 -119.560534 132 11419ft 174kts
16-Oct-20 15:35 35.302720 -119.516823 132 11415ft 174kts
16-Oct-20 15:36 35.269981 -119.473352 132 11409ft 174kts
16-Oct-20 15:37 35.237162 -119.429770 132 11410ft 174kts
16-Oct-20 15:38 35.204292 -119.386239 132 11405ft 174kts
16-Oct-20 15:39 35.171499 -119.342799 132 11429ft 172kts
16-Oct-20 15:40 35.138839 -119.299647 132 11442ft 173kts
16-Oct-20 15:41 35.105986 -119.256327 132 11437ft 174kts
16-Oct-20 15:42 35.073023 -119.212821 132 11433ft 174kts
16-Oct-20 15:43 35.040084 -119.169471 132 11430ft 174kts
16-Oct-20 15:44 35.007179 -119.126129 132 11427ft 174kts
16-Oct-20 15:45 34.974299 -119.083004 132 11421ft 174kts
16-Oct-20 15:46 34.941448 -119.039880 132 11419ft 173kts
16-Oct-20 15:47 34.908654 -118.996926 132 11386ft 174kts
16-Oct-20 15:48 34.875970 -118.954138 132 11467ft 170kts
16-Oct-20 15:49 34.843480 -118.911707 131 11494ft 171kts
16-Oct-20 15:50 34.811422 -118.869824 132 11695ft 163kts
16-Oct-20 15:51 34.795077 -118.819395 99 11741ft 166kts
16-Oct-20 15:52 34.783344 -118.764170 103 11763ft 170kts
16-Oct-20 15:53 34.771340 -118.708179 103 11739ft 172kts
16-Oct-20 15:54 34.759274 -118.651815 103 11718ft 172kts
16-Oct-20 15:55 34.744862 -118.596331 121 11693ft 173kts
16-Oct-20 15:56 34.710354 -118.555027 134 11667ft 174kts
16-Oct-20 15:57 34.675620 -118.513821 134 11638ft 174kts
16-Oct-20 15:58 34.640939 -118.472640 134 11624ft 174kts
16-Oct-20 15:59 34.606381 -118.431669 134 11612ft 173kts
16-Oct-20 16:00 34.571924 -118.390844 133 11615ft 173kts
16-Oct-20 16:01 34.537534 -118.350184 133 11622ft 173kts
16-Oct-20 16:02 34.503291 -118.309710 134 11647ft 172kts
16-Oct-20 16:03 34.468759 -118.269008 134 11630ft 173kts
16-Oct-20 16:04 34.434296 -118.228348 134 11626ft 173kts
16-Oct-20 16:05 34.399822 -118.187795 134 11622ft 173kts
16-Oct-20 16:06 34.365346 -118.147280 134 11617ft 173kts
16-Oct-20 16:07 34.330776 -118.106696 134 11599ft 173kts
16-Oct-20 16:08 34.296097 -118.065997 134 11553ft 174kts
16-Oct-20 16:09 34.261256 -118.025241 134 11514ft 174kts
16-Oct-20 16:10 34.226987 -117.984124 134 11492ft 173kts
16-Oct-20 16:11 34.192398 -117.943754 134 11501ft 172kts
16-Oct-20 16:12 34.157955 -117.903546 134 11505ft 172kts
16-Oct-20 16:13 34.123535 -117.863402 134 11502ft 172kts
16-Oct-20 16:14 34.089133 -117.823360 134 11509ft 172kts
16-Oct-20 16:15 34.054642 -117.783246 134 11496ft 172kts
16-Oct-20 16:16 34.020020 -117.743039 134 11482ft 173kts
16-Oct-20 16:17 33.985411 -117.702863 135 11471ft 173kts
16-Oct-20 16:18 33.950564 -117.662410 135 11459ft 174kts
16-Oct-20 16:19 33.915437 -117.621782 135 11454ft 174kts
16-Oct-20 16:20 33.877558 -117.587392 153 11510ft 172kts
16-Oct-20 16:21 33.834479 -117.560374 151 11385ft 176kts
16-Oct-20 16:22 33.791637 -117.532431 150 11123ft 175kts
16-Oct-20 16:23 33.748807 -117.504732 150 10851ft 174kts
16-Oct-20 16:24 33.706132 -117.477050 150 10553ft 175kts
16-Oct-20 16:25 33.663261 -117.449297 150 10232ft 176kts
16-Oct-20 16:26 33.620269 -117.421436 150 9888ft 177kts
16-Oct-20 16:27 33.576854 -117.393368 151 9522ft 178kts
16-Oct-20 16:28 33.532882 -117.364977 151 9142ft 180kts
16-Oct-20 16:29 33.488666 -117.336311 151 8811ft 179kts
16-Oct-20 16:30 33.445246 -117.308458 151 8551ft 176kts
16-Oct-20 16:31 33.402239 -117.280793 151 8278ft 175kts
16-Oct-20 16:32 33.359031 -117.253043 151 7984ft 176kts
16-Oct-20 16:33 33.325578 -117.209948 127 7364ft 182kts
16-Oct-20 16:34 33.293162 -117.164059 129 6573ft 180kts
16-Oct-20 16:35 33.260666 -117.118593 129 5749ft 179kts
16-Oct-20 16:36 33.228157 -117.073218 129 4898ft 179kts
16-Oct-20 16:37 33.196813 -117.029348 129 4405ft 154kts
16-Oct-20 16:38 33.163671 -117.003769 149 4452ft 141kts
16-Oct-20 16:39 33.133949 -116.973201 128 4463ft 143kts
16-Oct-20 16:40 33.099773 -116.961926 202 4459ft 143kts
16-Oct-20 16:41 33.059394 -116.979185 193 3854ft 163kts
16-Oct-20 16:42 33.028092 -116.962358 98 3153ft 127kts
16-Oct-20 16:43 33.021793 -116.921742 103 2966ft 108kts
16-Oct-20 16:45 33.017225 -116.888528 87 2514ft 91kts
16-Oct-20 16:46 33.033866 -116.883415 295 2144ft 87kts
16-Oct-20 16:47 33.038593 -116.911413 278 1395ft 63kts
16-Oct-20 16:48 33.039889 -116.915486 280 1391ft 11kts
16-Oct-20 16:49 33.041245 -116.917634 11 1392ft 6kts
16-Oct-20 16:50 33.041120 -116.917307 190 1391ft 0kts
16-Oct-20 16:51 33.041120 -116.917307 190 1391ft 0kts
16-Oct-20 16:52 33.041120 -116.917307 189 1391ft 0kts

Navigation Log

Ident Type
Flight plan parsing failed, navigation log unavailable